sensor_id;sensor_type;location;lat;lon;timestamp;P1;durP1;ratioP1;P2;durP2;ratioP2
45784;SDS011;31489;51.404;5.474;2024-03-22T00:01:46;42.53;;;27.73;;
45784;SDS011;31489;51.404;5.474;2024-03-22T00:04:12;39.80;;;25.92;;
45784;SDS011;31489;51.404;5.474;2024-03-22T00:06:41;43.42;;;27.15;;
45784;SDS011;31489;51.404;5.474;2024-03-22T00:09:08;39.50;;;28.13;;
45784;SDS011;31489;51.404;5.474;2024-03-22T00:11:34;40.85;;;26.98;;
45784;SDS011;31489;51.404;5.474;2024-03-22T00:14:01;41.78;;;27.17;;
45784;SDS011;31489;51.404;5.474;2024-03-22T00:16:27;43.33;;;29.65;;
45784;SDS011;31489;51.404;5.474;2024-03-22T00:18:52;45.47;;;27.95;;
45784;SDS011;31489;51.404;5.474;2024-03-22T00:21:18;45.42;;;28.95;;
45784;SDS011;31489;51.404;5.474;2024-03-22T00:23:44;43.33;;;28.17;;
45784;SDS011;31489;51.404;5.474;2024-03-22T00:26:10;41.88;;;26.73;;
45784;SDS011;31489;51.404;5.474;2024-03-22T00:28:36;42.75;;;28.15;;
45784;SDS011;31489;51.404;5.474;2024-03-22T00:31:02;44.30;;;28.52;;
45784;SDS011;31489;51.404;5.474;2024-03-22T00:33:27;40.67;;;27.98;;
45784;SDS011;31489;51.404;5.474;2024-03-22T00:35:53;40.60;;;27.48;;
45784;SDS011;31489;51.404;5.474;2024-03-22T00:38:19;44.00;;;28.27;;
45784;SDS011;31489;51.404;5.474;2024-03-22T00:40:44;43.58;;;28.77;;
45784;SDS011;31489;51.404;5.474;2024-03-22T00:43:10;38.92;;;27.15;;
45784;SDS011;31489;51.404;5.474;2024-03-22T00:45:35;38.35;;;26.80;;
45784;SDS011;31489;51.404;5.474;2024-03-22T00:48:01;42.05;;;27.77;;
45784;SDS011;31489;51.404;5.474;2024-03-22T00:50:27;41.78;;;27.70;;
45784;SDS011;31489;51.404;5.474;2024-03-22T00:52:53;39.50;;;26.38;;
45784;SDS011;31489;51.404;5.474;2024-03-22T00:55:22;39.42;;;27.00;;
45784;SDS011;31489;51.404;5.474;2024-03-22T00:57:48;36.13;;;26.67;;
45784;SDS011;31489;51.404;5.474;2024-03-22T01:00:14;38.28;;;27.05;;
45784;SDS011;31489;51.404;5.474;2024-03-22T01:02:41;37.35;;;27.70;;
45784;SDS011;31489;51.404;5.474;2024-03-22T01:05:07;40.70;;;27.42;;
45784;SDS011;31489;51.404;5.474;2024-03-22T01:07:33;41.10;;;27.88;;
45784;SDS011;31489;51.404;5.474;2024-03-22T01:09:58;41.90;;;27.27;;
45784;SDS011;31489;51.404;5.474;2024-03-22T01:12:24;42.08;;;28.17;;
45784;SDS011;31489;51.404;5.474;2024-03-22T01:14:50;39.42;;;27.80;;
45784;SDS011;31489;51.404;5.474;2024-03-22T01:17:16;37.25;;;27.48;;
45784;SDS011;31489;51.404;5.474;2024-03-22T01:19:41;40.85;;;27.70;;
45784;SDS011;31489;51.404;5.474;2024-03-22T01:22:07;43.88;;;27.70;;
45784;SDS011;31489;51.404;5.474;2024-03-22T01:24:33;43.53;;;27.33;;
45784;SDS011;31489;51.404;5.474;2024-03-22T01:26:58;38.92;;;26.83;;
45784;SDS011;31489;51.404;5.474;2024-03-22T01:29:24;43.05;;;27.23;;
45784;SDS011;31489;51.404;5.474;2024-03-22T01:31:49;37.55;;;26.23;;
45784;SDS011;31489;51.404;5.474;2024-03-22T01:34:15;36.97;;;26.02;;
45784;SDS011;31489;51.404;5.474;2024-03-22T01:36:41;37.63;;;26.33;;
45784;SDS011;31489;51.404;5.474;2024-03-22T01:39:06;34.58;;;24.63;;
45784;SDS011;31489;51.404;5.474;2024-03-22T01:41:32;36.35;;;24.63;;
45784;SDS011;31489;51.404;5.474;2024-03-22T01:43:58;37.95;;;27.73;;
45784;SDS011;31489;51.404;5.474;2024-03-22T01:46:24;38.08;;;25.85;;
45784;SDS011;31489;51.404;5.474;2024-03-22T01:48:50;34.47;;;25.10;;
45784;SDS011;31489;51.404;5.474;2024-03-22T01:51:16;34.75;;;25.27;;
45784;SDS011;31489;51.404;5.474;2024-03-22T01:53:43;39.58;;;25.55;;
45784;SDS011;31489;51.404;5.474;2024-03-22T01:56:09;33.72;;;23.98;;
45784;SDS011;31489;51.404;5.474;2024-03-22T01:58:35;33.33;;;24.40;;
45784;SDS011;31489;51.404;5.474;2024-03-22T02:01:01;35.95;;;24.80;;
45784;SDS011;31489;51.404;5.474;2024-03-22T02:03:27;36.42;;;25.38;;
45784;SDS011;31489;51.404;5.474;2024-03-22T02:05:52;37.72;;;24.85;;
45784;SDS011;31489;51.404;5.474;2024-03-22T02:08:18;34.90;;;23.88;;
45784;SDS011;31489;51.404;5.474;2024-03-22T02:10:44;38.08;;;25.20;;
45784;SDS011;31489;51.404;5.474;2024-03-22T02:13:10;33.60;;;23.58;;
45784;SDS011;31489;51.404;5.474;2024-03-22T02:15:36;32.83;;;23.48;;
45784;SDS011;31489;51.404;5.474;2024-03-22T02:18:01;34.17;;;23.00;;
45784;SDS011;31489;51.404;5.474;2024-03-22T02:20:28;34.95;;;23.67;;
45784;SDS011;31489;51.404;5.474;2024-03-22T02:22:54;35.30;;;22.85;;
45784;SDS011;31489;51.404;5.474;2024-03-22T02:25:20;30.27;;;22.65;;
45784;SDS011;31489;51.404;5.474;2024-03-22T02:27:45;34.05;;;23.95;;
45784;SDS011;31489;51.404;5.474;2024-03-22T02:30:15;30.75;;;22.55;;
45784;SDS011;31489;51.404;5.474;2024-03-22T02:32:41;32.20;;;23.42;;
45784;SDS011;31489;51.404;5.474;2024-03-22T02:35:07;32.95;;;23.48;;
45784;SDS011;31489;51.404;5.474;2024-03-22T02:37:33;29.95;;;22.35;;
45784;SDS011;31489;51.404;5.474;2024-03-22T02:39:58;33.80;;;21.70;;
45784;SDS011;31489;51.404;5.474;2024-03-22T02:42:24;31.13;;;22.42;;
45784;SDS011;31489;51.404;5.474;2024-03-22T02:44:49;31.98;;;22.67;;
45784;SDS011;31489;51.404;5.474;2024-03-22T02:47:15;27.95;;;20.42;;
45784;SDS011;31489;51.404;5.474;2024-03-22T02:49:41;30.10;;;21.02;;
45784;SDS011;31489;51.404;5.474;2024-03-22T02:52:06;29.17;;;21.45;;
45784;SDS011;31489;51.404;5.474;2024-03-22T02:54:32;30.45;;;20.55;;
45784;SDS011;31489;51.404;5.474;2024-03-22T02:56:58;28.08;;;20.17;;
45784;SDS011;31489;51.404;5.474;2024-03-22T02:59:26;28.25;;;19.30;;
45784;SDS011;31489;51.404;5.474;2024-03-22T03:01:52;30.23;;;20.10;;
45784;SDS011;31489;51.404;5.474;2024-03-22T03:04:18;27.27;;;19.50;;
45784;SDS011;31489;51.404;5.474;2024-03-22T03:06:44;25.50;;;19.55;;
45784;SDS011;31489;51.404;5.474;2024-03-22T03:09:12;28.38;;;20.55;;
45784;SDS011;31489;51.404;5.474;2024-03-22T03:11:39;28.88;;;20.15;;
45784;SDS011;31489;51.404;5.474;2024-03-22T03:14:05;25.90;;;19.45;;
45784;SDS011;31489;51.404;5.474;2024-03-22T03:16:30;25.70;;;19.45;;
45784;SDS011;31489;51.404;5.474;2024-03-22T03:18:56;28.20;;;20.55;;
45784;SDS011;31489;51.404;5.474;2024-03-22T03:21:22;25.73;;;18.83;;
45784;SDS011;31489;51.404;5.474;2024-03-22T03:23:47;28.75;;;19.05;;
45784;SDS011;31489;51.404;5.474;2024-03-22T03:26:13;27.73;;;18.75;;
45784;SDS011;31489;51.404;5.474;2024-03-22T03:28:39;26.98;;;18.90;;
45784;SDS011;31489;51.404;5.474;2024-03-22T03:31:04;27.90;;;18.13;;
45784;SDS011;31489;51.404;5.474;2024-03-22T03:33:30;29.23;;;19.83;;
45784;SDS011;31489;51.404;5.474;2024-03-22T03:35:56;27.05;;;18.90;;
45784;SDS011;31489;51.404;5.474;2024-03-22T03:38:21;23.48;;;18.63;;
45784;SDS011;31489;51.404;5.474;2024-03-22T03:40:47;27.23;;;19.05;;
45784;SDS011;31489;51.404;5.474;2024-03-22T03:43:13;25.10;;;18.85;;
45784;SDS011;31489;51.404;5.474;2024-03-22T03:45:39;24.75;;;18.08;;
45784;SDS011;31489;51.404;5.474;2024-03-22T03:48:04;25.73;;;18.73;;
45784;SDS011;31489;51.404;5.474;2024-03-22T03:50:30;24.40;;;17.77;;
45784;SDS011;31489;51.404;5.474;2024-03-22T03:52:56;26.73;;;17.65;;
45784;SDS011;31489;51.404;5.474;2024-03-22T03:55:22;25.50;;;18.10;;
45784;SDS011;31489;51.404;5.474;2024-03-22T03:57:49;24.85;;;17.90;;
45784;SDS011;31489;51.404;5.474;2024-03-22T04:00:15;25.23;;;17.70;;
45784;SDS011;31489;51.404;5.474;2024-03-22T04:02:41;25.17;;;18.80;;
45784;SDS011;31489;51.404;5.474;2024-03-22T04:05:07;23.52;;;18.27;;
45784;SDS011;31489;51.404;5.474;2024-03-22T04:07:33;22.48;;;17.30;;
45784;SDS011;31489;51.404;5.474;2024-03-22T04:09:58;22.40;;;17.98;;
45784;SDS011;31489;51.404;5.474;2024-03-22T04:12:25;27.23;;;18.30;;
45784;SDS011;31489;51.404;5.474;2024-03-22T04:14:51;26.00;;;18.23;;
45784;SDS011;31489;51.404;5.474;2024-03-22T04:17:17;29.30;;;18.55;;
45784;SDS011;31489;51.404;5.474;2024-03-22T04:19:43;25.65;;;17.92;;
45784;SDS011;31489;51.404;5.474;2024-03-22T04:22:09;22.58;;;16.98;;
45784;SDS011;31489;51.404;5.474;2024-03-22T04:24:34;25.25;;;17.55;;
45784;SDS011;31489;51.404;5.474;2024-03-22T04:27:00;25.15;;;17.85;;
45784;SDS011;31489;51.404;5.474;2024-03-22T04:29:26;26.48;;;18.35;;
45784;SDS011;31489;51.404;5.474;2024-03-22T04:31:51;26.25;;;18.85;;
45784;SDS011;31489;51.404;5.474;2024-03-22T04:34:17;22.75;;;17.73;;
45784;SDS011;31489;51.404;5.474;2024-03-22T04:36:42;25.52;;;17.88;;
45784;SDS011;31489;51.404;5.474;2024-03-22T04:39:08;26.45;;;18.25;;
45784;SDS011;31489;51.404;5.474;2024-03-22T04:41:35;24.17;;;17.27;;
45784;SDS011;31489;51.404;5.474;2024-03-22T04:44:01;23.02;;;16.80;;
45784;SDS011;31489;51.404;5.474;2024-03-22T04:46:27;25.38;;;16.80;;
45784;SDS011;31489;51.404;5.474;2024-03-22T04:48:52;22.65;;;17.25;;
45784;SDS011;31489;51.404;5.474;2024-03-22T04:51:18;21.17;;;16.85;;
45784;SDS011;31489;51.404;5.474;2024-03-22T04:53:44;27.33;;;18.05;;
45784;SDS011;31489;51.404;5.474;2024-03-22T04:56:12;22.98;;;17.50;;
45784;SDS011;31489;51.404;5.474;2024-03-22T04:58:38;25.17;;;17.50;;
45784;SDS011;31489;51.404;5.474;2024-03-22T05:01:03;21.40;;;16.65;;
45784;SDS011;31489;51.404;5.474;2024-03-22T05:03:29;22.67;;;16.42;;
45784;SDS011;31489;51.404;5.474;2024-03-22T05:05:54;24.05;;;17.88;;
45784;SDS011;31489;51.404;5.474;2024-03-22T05:08:22;22.23;;;17.20;;
45784;SDS011;31489;51.404;5.474;2024-03-22T05:10:48;25.33;;;16.90;;
45784;SDS011;31489;51.404;5.474;2024-03-22T05:13:13;26.38;;;17.33;;
45784;SDS011;31489;51.404;5.474;2024-03-22T05:15:39;22.17;;;16.23;;
45784;SDS011;31489;51.404;5.474;2024-03-22T05:18:05;23.15;;;16.48;;
45784;SDS011;31489;51.404;5.474;2024-03-22T05:20:30;22.92;;;16.42;;
45784;SDS011;31489;51.404;5.474;2024-03-22T05:22:56;22.83;;;16.48;;
45784;SDS011;31489;51.404;5.474;2024-03-22T05:25:22;23.67;;;17.63;;
45784;SDS011;31489;51.404;5.474;2024-03-22T05:27:47;21.02;;;16.15;;
45784;SDS011;31489;51.404;5.474;2024-03-22T05:30:13;26.77;;;16.58;;
45784;SDS011;31489;51.404;5.474;2024-03-22T05:32:39;21.75;;;16.20;;
45784;SDS011;31489;51.404;5.474;2024-03-22T05:35:07;22.90;;;16.88;;
45784;SDS011;31489;51.404;5.474;2024-03-22T05:37:33;22.15;;;16.80;;
45784;SDS011;31489;51.404;5.474;2024-03-22T05:39:59;23.75;;;16.77;;
45784;SDS011;31489;51.404;5.474;2024-03-22T05:42:26;19.92;;;15.40;;
45784;SDS011;31489;51.404;5.474;2024-03-22T05:44:51;21.20;;;15.52;;
45784;SDS011;31489;51.404;5.474;2024-03-22T05:47:17;22.83;;;16.27;;
45784;SDS011;31489;51.404;5.474;2024-03-22T05:49:44;22.63;;;15.73;;
45784;SDS011;31489;51.404;5.474;2024-03-22T05:52:10;22.40;;;17.30;;
45784;SDS011;31489;51.404;5.474;2024-03-22T05:54:37;21.60;;;16.20;;
45784;SDS011;31489;51.404;5.474;2024-03-22T05:57:02;22.92;;;15.63;;
45784;SDS011;31489;51.404;5.474;2024-03-22T05:59:30;21.98;;;15.57;;
45784;SDS011;31489;51.404;5.474;2024-03-22T06:01:55;22.90;;;15.48;;
45784;SDS011;31489;51.404;5.474;2024-03-22T06:04:21;23.55;;;16.20;;
45784;SDS011;31489;51.404;5.474;2024-03-22T06:06:48;22.67;;;15.10;;
45784;SDS011;31489;51.404;5.474;2024-03-22T06:09:14;20.35;;;14.60;;
45784;SDS011;31489;51.404;5.474;2024-03-22T06:11:48;22.02;;;16.02;;
45784;SDS011;31489;51.404;5.474;2024-03-22T06:14:17;21.33;;;14.23;;
45784;SDS011;31489;51.404;5.474;2024-03-22T06:16:43;20.75;;;14.05;;
45784;SDS011;31489;51.404;5.474;2024-03-22T06:19:08;17.95;;;14.10;;
45784;SDS011;31489;51.404;5.474;2024-03-22T06:21:34;19.77;;;14.70;;
45784;SDS011;31489;51.404;5.474;2024-03-22T06:24:00;21.88;;;14.85;;
45784;SDS011;31489;51.404;5.474;2024-03-22T06:26:26;19.70;;;14.70;;
45784;SDS011;31489;51.404;5.474;2024-03-22T06:28:51;20.90;;;14.73;;
45784;SDS011;31489;51.404;5.474;2024-03-22T06:31:17;17.65;;;14.00;;
45784;SDS011;31489;51.404;5.474;2024-03-22T06:33:42;22.75;;;14.88;;
45784;SDS011;31489;51.404;5.474;2024-03-22T06:36:08;20.80;;;14.55;;
45784;SDS011;31489;51.404;5.474;2024-03-22T06:38:34;20.15;;;14.15;;
45784;SDS011;31489;51.404;5.474;2024-03-22T06:40:59;22.17;;;15.05;;
45784;SDS011;31489;51.404;5.474;2024-03-22T06:43:25;21.85;;;14.57;;
45784;SDS011;31489;51.404;5.474;2024-03-22T06:45:51;20.08;;;14.13;;
45784;SDS011;31489;51.404;5.474;2024-03-22T06:48:16;23.00;;;14.73;;
45784;SDS011;31489;51.404;5.474;2024-03-22T06:50:42;21.02;;;13.85;;
45784;SDS011;31489;51.404;5.474;2024-03-22T06:53:08;19.35;;;13.75;;
45784;SDS011;31489;51.404;5.474;2024-03-22T06:55:35;19.88;;;13.55;;
45784;SDS011;31489;51.404;5.474;2024-03-22T06:58:01;19.95;;;13.88;;
45784;SDS011;31489;51.404;5.474;2024-03-22T07:00:27;19.30;;;13.65;;
45784;SDS011;31489;51.404;5.474;2024-03-22T07:02:53;20.80;;;14.27;;
45784;SDS011;31489;51.404;5.474;2024-03-22T07:05:20;18.08;;;13.38;;
45784;SDS011;31489;51.404;5.474;2024-03-22T07:07:46;22.85;;;14.43;;
45784;SDS011;31489;51.404;5.474;2024-03-22T07:10:12;18.00;;;13.65;;
45784;SDS011;31489;51.404;5.474;2024-03-22T07:12:38;20.77;;;13.50;;
45784;SDS011;31489;51.404;5.474;2024-03-22T07:15:03;22.58;;;13.07;;
45784;SDS011;31489;51.404;5.474;2024-03-22T07:17:30;19.92;;;13.02;;
45784;SDS011;31489;51.404;5.474;2024-03-22T07:19:55;17.40;;;12.65;;
45784;SDS011;31489;51.404;5.474;2024-03-22T07:22:22;17.48;;;12.32;;
45784;SDS011;31489;51.404;5.474;2024-03-22T07:24:47;18.15;;;13.23;;
45784;SDS011;31489;51.404;5.474;2024-03-22T07:27:14;17.27;;;12.55;;
45784;SDS011;31489;51.404;5.474;2024-03-22T07:29:40;17.42;;;12.52;;
45784;SDS011;31489;51.404;5.474;2024-03-22T07:32:06;15.60;;;11.80;;
45784;SDS011;31489;51.404;5.474;2024-03-22T07:34:32;12.93;;;10.60;;
45784;SDS011;31489;51.404;5.474;2024-03-22T07:36:58;15.38;;;11.77;;
45784;SDS011;31489;51.404;5.474;2024-03-22T07:39:23;14.65;;;11.30;;
45784;SDS011;31489;51.404;5.474;2024-03-22T07:41:49;14.60;;;11.48;;
45784;SDS011;31489;51.404;5.474;2024-03-22T07:44:15;14.85;;;11.18;;
45784;SDS011;31489;51.404;5.474;2024-03-22T07:46:43;16.17;;;11.57;;
45784;SDS011;31489;51.404;5.474;2024-03-22T07:49:09;15.88;;;11.85;;
45784;SDS011;31489;51.404;5.474;2024-03-22T07:51:36;14.98;;;11.50;;
45784;SDS011;31489;51.404;5.474;2024-03-22T07:54:02;15.55;;;11.60;;
45784;SDS011;31489;51.404;5.474;2024-03-22T07:56:27;13.95;;;11.43;;
45784;SDS011;31489;51.404;5.474;2024-03-22T07:58:53;15.52;;;11.38;;
45784;SDS011;31489;51.404;5.474;2024-03-22T08:01:19;14.68;;;11.32;;
45784;SDS011;31489;51.404;5.474;2024-03-22T08:03:44;14.25;;;11.52;;
45784;SDS011;31489;51.404;5.474;2024-03-22T08:06:10;14.40;;;10.95;;
45784;SDS011;31489;51.404;5.474;2024-03-22T08:08:35;13.80;;;10.07;;
45784;SDS011;31489;51.404;5.474;2024-03-22T08:11:01;13.55;;;10.20;;
45784;SDS011;31489;51.404;5.474;2024-03-22T08:13:26;12.65;;;10.82;;
45784;SDS011;31489;51.404;5.474;2024-03-22T08:15:52;13.73;;;10.35;;
45784;SDS011;31489;51.404;5.474;2024-03-22T08:18:18;15.25;;;10.52;;
45784;SDS011;31489;51.404;5.474;2024-03-22T08:20:44;12.52;;;9.82;;
45784;SDS011;31489;51.404;5.474;2024-03-22T08:23:10;12.93;;;10.75;;
45784;SDS011;31489;51.404;5.474;2024-03-22T08:25:35;11.23;;;9.75;;
45784;SDS011;31489;51.404;5.474;2024-03-22T08:28:02;12.88;;;10.48;;
45784;SDS011;31489;51.404;5.474;2024-03-22T08:30:27;14.27;;;9.57;;
45784;SDS011;31489;51.404;5.474;2024-03-22T08:32:53;11.73;;;9.32;;
45784;SDS011;31489;51.404;5.474;2024-03-22T08:35:19;11.90;;;9.50;;
45784;SDS011;31489;51.404;5.474;2024-03-22T08:37:44;11.57;;;9.23;;
45784;SDS011;31489;51.404;5.474;2024-03-22T08:40:10;10.93;;;9.38;;
45784;SDS011;31489;51.404;5.474;2024-03-22T08:42:37;13.65;;;9.10;;
45784;SDS011;31489;51.404;5.474;2024-03-22T08:45:03;12.27;;;9.10;;
45784;SDS011;31489;51.404;5.474;2024-03-22T08:47:29;10.65;;;8.52;;
45784;SDS011;31489;51.404;5.474;2024-03-22T08:49:56;11.38;;;8.70;;
45784;SDS011;31489;51.404;5.474;2024-03-22T08:52:22;10.43;;;8.57;;
45784;SDS011;31489;51.404;5.474;2024-03-22T08:54:49;9.60;;;7.97;;
45784;SDS011;31489;51.404;5.474;2024-03-22T08:57:15;10.02;;;8.10;;
45784;SDS011;31489;51.404;5.474;2024-03-22T08:59:41;8.80;;;7.60;;
45784;SDS011;31489;51.404;5.474;2024-03-22T09:02:06;12.70;;;7.95;;
45784;SDS011;31489;51.404;5.474;2024-03-22T09:04:32;7.63;;;6.82;;
45784;SDS011;31489;51.404;5.474;2024-03-22T09:06:58;9.43;;;7.40;;
45784;SDS011;31489;51.404;5.474;2024-03-22T09:09:23;8.88;;;7.43;;
45784;SDS011;31489;51.404;5.474;2024-03-22T09:11:49;10.18;;;8.20;;
45784;SDS011;31489;51.404;5.474;2024-03-22T09:14:14;10.25;;;8.95;;
45784;SDS011;31489;51.404;5.474;2024-03-22T09:16:40;13.88;;;8.60;;
45784;SDS011;31489;51.404;5.474;2024-03-22T09:19:05;9.45;;;7.45;;
45784;SDS011;31489;51.404;5.474;2024-03-22T09:21:31;8.85;;;7.63;;
45784;SDS011;31489;51.404;5.474;2024-03-22T09:23:57;11.18;;;7.40;;
45784;SDS011;31489;51.404;5.474;2024-03-22T09:26:22;8.32;;;7.13;;
45784;SDS011;31489;51.404;5.474;2024-03-22T09:28:48;9.52;;;7.40;;
45784;SDS011;31489;51.404;5.474;2024-03-22T09:31:15;8.85;;;6.95;;
45784;SDS011;31489;51.404;5.474;2024-03-22T09:33:41;9.15;;;7.15;;
45784;SDS011;31489;51.404;5.474;2024-03-22T09:36:07;8.32;;;6.55;;
45784;SDS011;31489;51.404;5.474;2024-03-22T09:38:33;7.97;;;6.88;;
45784;SDS011;31489;51.404;5.474;2024-03-22T09:40:58;9.30;;;6.97;;
45784;SDS011;31489;51.404;5.474;2024-03-22T09:43:24;8.98;;;7.10;;
45784;SDS011;31489;51.404;5.474;2024-03-22T09:45:52;9.00;;;6.75;;
45784;SDS011;31489;51.404;5.474;2024-03-22T09:48:20;7.63;;;6.63;;
45784;SDS011;31489;51.404;5.474;2024-03-22T09:50:46;7.85;;;6.25;;
45784;SDS011;31489;51.404;5.474;2024-03-22T09:53:18;9.02;;;7.30;;
45784;SDS011;31489;51.404;5.474;2024-03-22T09:55:46;8.43;;;7.28;;
45784;SDS011;31489;51.404;5.474;2024-03-22T09:58:12;10.52;;;7.65;;
45784;SDS011;31489;51.404;5.474;2024-03-22T10:00:38;9.50;;;7.35;;
45784;SDS011;31489;51.404;5.474;2024-03-22T10:03:04;7.55;;;6.75;;
45784;SDS011;31489;51.404;5.474;2024-03-22T10:05:30;11.70;;;7.47;;
45784;SDS011;31489;51.404;5.474;2024-03-22T10:07:56;11.70;;;7.72;;
45784;SDS011;31489;51.404;5.474;2024-03-22T10:10:22;9.57;;;7.32;;
45784;SDS011;31489;51.404;5.474;2024-03-22T10:12:48;9.57;;;7.05;;
45784;SDS011;31489;51.404;5.474;2024-03-22T10:15:13;8.25;;;6.28;;
45784;SDS011;31489;51.404;5.474;2024-03-22T10:17:39;9.73;;;6.57;;
45784;SDS011;31489;51.404;5.474;2024-03-22T10:20:06;8.00;;;6.88;;
45784;SDS011;31489;51.404;5.474;2024-03-22T10:22:48;8.55;;;6.88;;
45784;SDS011;31489;51.404;5.474;2024-03-22T10:25:19;8.38;;;6.43;;
45784;SDS011;31489;51.404;5.474;2024-03-22T10:27:45;8.65;;;6.40;;
45784;SDS011;31489;51.404;5.474;2024-03-22T10:30:11;8.52;;;6.55;;
45784;SDS011;31489;51.404;5.474;2024-03-22T10:32:40;8.07;;;5.57;;
45784;SDS011;31489;51.404;5.474;2024-03-22T10:35:06;7.35;;;6.10;;
45784;SDS011;31489;51.404;5.474;2024-03-22T10:37:34;8.55;;;6.45;;
45784;SDS011;31489;51.404;5.474;2024-03-22T10:40:03;7.10;;;6.00;;
45784;SDS011;31489;51.404;5.474;2024-03-22T10:42:36;8.18;;;6.13;;
45784;SDS011;31489;51.404;5.474;2024-03-22T10:45:03;7.93;;;6.03;;
45784;SDS011;31489;51.404;5.474;2024-03-22T10:47:30;9.38;;;5.95;;
45784;SDS011;31489;51.404;5.474;2024-03-22T10:50:00;7.57;;;6.05;;
45784;SDS011;31489;51.404;5.474;2024-03-22T10:52:31;6.75;;;5.63;;
45784;SDS011;31489;51.404;5.474;2024-03-22T10:55:01;8.95;;;5.95;;
45784;SDS011;31489;51.404;5.474;2024-03-22T10:57:29;8.95;;;6.38;;
45784;SDS011;31489;51.404;5.474;2024-03-22T10:59:55;9.27;;;6.35;;
45784;SDS011;31489;51.404;5.474;2024-03-22T11:02:23;8.98;;;6.50;;
45784;SDS011;31489;51.404;5.474;2024-03-22T11:04:58;8.55;;;6.45;;
45784;SDS011;31489;51.404;5.474;2024-03-22T11:07:28;10.07;;;7.03;;
45784;SDS011;31489;51.404;5.474;2024-03-22T11:10:00;9.07;;;6.85;;
45784;SDS011;31489;51.404;5.474;2024-03-22T11:12:31;9.88;;;7.50;;
45784;SDS011;31489;51.404;5.474;2024-03-22T11:14:58;10.20;;;7.13;;
45784;SDS011;31489;51.404;5.474;2024-03-22T11:17:24;11.65;;;7.95;;
45784;SDS011;31489;51.404;5.474;2024-03-22T11:19:50;8.15;;;7.18;;
45784;SDS011;31489;51.404;5.474;2024-03-22T11:22:17;13.45;;;8.55;;
45784;SDS011;31489;51.404;5.474;2024-03-22T11:24:43;11.82;;;8.07;;
45784;SDS011;31489;51.404;5.474;2024-03-22T11:27:09;11.75;;;8.25;;
45784;SDS011;31489;51.404;5.474;2024-03-22T11:29:36;11.48;;;8.07;;
45784;SDS011;31489;51.404;5.474;2024-03-22T11:32:05;13.18;;;9.00;;
45784;SDS011;31489;51.404;5.474;2024-03-22T11:34:33;11.90;;;8.90;;
45784;SDS011;31489;51.404;5.474;2024-03-22T11:37:00;10.38;;;8.73;;
45784;SDS011;31489;51.404;5.474;2024-03-22T11:39:26;15.25;;;9.85;;
45784;SDS011;31489;51.404;5.474;2024-03-22T11:41:51;14.38;;;9.18;;
45784;SDS011;31489;51.404;5.474;2024-03-22T11:44:17;13.10;;;9.07;;
45784;SDS011;31489;51.404;5.474;2024-03-22T11:46:44;13.70;;;10.07;;
45784;SDS011;31489;51.404;5.474;2024-03-22T11:49:10;15.60;;;10.43;;
45784;SDS011;31489;51.404;5.474;2024-03-22T11:51:36;15.40;;;11.05;;
45784;SDS011;31489;51.404;5.474;2024-03-22T11:54:03;14.75;;;11.20;;
45784;SDS011;31489;51.404;5.474;2024-03-22T11:56:28;15.90;;;10.73;;
45784;SDS011;31489;51.404;5.474;2024-03-22T11:59:00;15.52;;;12.52;;
45784;SDS011;31489;51.404;5.474;2024-03-22T12:01:27;18.92;;;14.05;;
45784;SDS011;31489;51.404;5.474;2024-03-22T12:03:53;15.98;;;13.70;;
45784;SDS011;31489;51.404;5.474;2024-03-22T12:06:20;20.52;;;14.20;;
45784;SDS011;31489;51.404;5.474;2024-03-22T12:08:49;19.75;;;15.00;;
45784;SDS011;31489;51.404;5.474;2024-03-22T12:11:16;18.63;;;14.32;;
45784;SDS011;31489;51.404;5.474;2024-03-22T12:13:41;20.45;;;14.52;;
45784;SDS011;31489;51.404;5.474;2024-03-22T12:16:07;21.13;;;15.98;;
45784;SDS011;31489;51.404;5.474;2024-03-22T12:18:32;19.17;;;16.17;;
45784;SDS011;31489;51.404;5.474;2024-03-22T12:20:58;18.63;;;14.95;;
45784;SDS011;31489;51.404;5.474;2024-03-22T12:23:25;20.17;;;14.80;;
45784;SDS011;31489;51.404;5.474;2024-03-22T12:25:51;18.33;;;15.23;;
45784;SDS011;31489;51.404;5.474;2024-03-22T12:28:17;18.23;;;14.98;;
45784;SDS011;31489;51.404;5.474;2024-03-22T12:30:43;21.50;;;16.08;;
45784;SDS011;31489;51.404;5.474;2024-03-22T12:33:09;19.45;;;16.58;;
45784;SDS011;31489;51.404;5.474;2024-03-22T12:35:39;20.08;;;16.15;;
45784;SDS011;31489;51.404;5.474;2024-03-22T12:38:05;19.42;;;15.38;;
45784;SDS011;31489;51.404;5.474;2024-03-22T12:40:32;18.42;;;15.95;;
45784;SDS011;31489;51.404;5.474;2024-03-22T12:42:58;20.85;;;16.30;;
45784;SDS011;31489;51.404;5.474;2024-03-22T12:45:24;20.45;;;15.98;;
45784;SDS011;31489;51.404;5.474;2024-03-22T12:47:50;21.27;;;16.25;;
45784;SDS011;31489;51.404;5.474;2024-03-22T12:50:15;18.92;;;15.38;;
45784;SDS011;31489;51.404;5.474;2024-03-22T12:52:41;18.85;;;14.40;;
45784;SDS011;31489;51.404;5.474;2024-03-22T12:55:09;22.70;;;14.35;;
45784;SDS011;31489;51.404;5.474;2024-03-22T12:57:35;21.75;;;15.55;;
45784;SDS011;31489;51.404;5.474;2024-03-22T13:00:00;21.60;;;15.30;;
45784;SDS011;31489;51.404;5.474;2024-03-22T13:02:26;21.27;;;16.10;;
45784;SDS011;31489;51.404;5.474;2024-03-22T13:04:52;20.27;;;16.55;;
45784;SDS011;31489;51.404;5.474;2024-03-22T13:07:18;18.85;;;15.88;;
45784;SDS011;31489;51.404;5.474;2024-03-22T13:09:44;22.27;;;16.05;;
45784;SDS011;31489;51.404;5.474;2024-03-22T13:12:10;19.30;;;14.90;;
45784;SDS011;31489;51.404;5.474;2024-03-22T13:14:36;17.98;;;16.10;;
45784;SDS011;31489;51.404;5.474;2024-03-22T13:17:01;20.92;;;15.57;;
45784;SDS011;31489;51.404;5.474;2024-03-22T13:19:27;18.63;;;15.32;;
45784;SDS011;31489;51.404;5.474;2024-03-22T13:21:53;17.80;;;14.13;;
45784;SDS011;31489;51.404;5.474;2024-03-22T13:24:18;17.35;;;14.52;;
45784;SDS011;31489;51.404;5.474;2024-03-22T13:26:44;16.20;;;14.45;;
45784;SDS011;31489;51.404;5.474;2024-03-22T13:29:10;17.20;;;15.25;;
45784;SDS011;31489;51.404;5.474;2024-03-22T13:31:37;17.88;;;15.98;;
45784;SDS011;31489;51.404;5.474;2024-03-22T13:34:03;18.30;;;16.35;;
45784;SDS011;31489;51.404;5.474;2024-03-22T13:36:29;21.00;;;16.65;;
45784;SDS011;31489;51.404;5.474;2024-03-22T13:38:57;21.73;;;17.10;;
45784;SDS011;31489;51.404;5.474;2024-03-22T13:41:23;21.20;;;17.70;;
45784;SDS011;31489;51.404;5.474;2024-03-22T13:43:49;23.38;;;18.77;;
45784;SDS011;31489;51.404;5.474;2024-03-22T13:46:14;22.30;;;18.60;;
45784;SDS011;31489;51.404;5.474;2024-03-22T13:48:42;21.40;;;17.48;;
45784;SDS011;31489;51.404;5.474;2024-03-22T13:51:08;19.70;;;17.08;;
45784;SDS011;31489;51.404;5.474;2024-03-22T13:53:33;24.00;;;17.33;;
45784;SDS011;31489;51.404;5.474;2024-03-22T13:55:59;21.00;;;17.92;;
45784;SDS011;31489;51.404;5.474;2024-03-22T13:58:26;20.98;;;18.83;;
45784;SDS011;31489;51.404;5.474;2024-03-22T14:00:52;21.65;;;18.10;;
45784;SDS011;31489;51.404;5.474;2024-03-22T14:03:17;24.95;;;17.30;;
45784;SDS011;31489;51.404;5.474;2024-03-22T14:05:43;20.17;;;16.60;;
45784;SDS011;31489;51.404;5.474;2024-03-22T14:08:09;19.52;;;16.20;;
45784;SDS011;31489;51.404;5.474;2024-03-22T14:10:34;20.63;;;16.23;;
45784;SDS011;31489;51.404;5.474;2024-03-22T14:13:00;17.77;;;14.70;;
45784;SDS011;31489;51.404;5.474;2024-03-22T14:15:26;18.08;;;15.48;;
45784;SDS011;31489;51.404;5.474;2024-03-22T14:17:56;18.85;;;15.50;;
45784;SDS011;31489;51.404;5.474;2024-03-22T14:20:22;18.95;;;15.48;;